createdAt,value
2017-08-08T00:02:19.983Z,98840.66
2017-08-08T00:04:52.539Z,98833.88
2017-08-08T00:07:27.225Z,98838.22
2017-08-08T00:10:02.762Z,98843.64
2017-08-08T00:12:35.414Z,98838.28
2017-08-08T00:15:08.338Z,98823.30
2017-08-08T00:17:41.283Z,98844.34
2017-08-08T00:20:13.972Z,98835.52
2017-08-08T00:22:48.280Z,98816.30
2017-08-08T00:25:20.367Z,98845.75
2017-08-08T00:27:53.113Z,98834.80
2017-08-08T00:30:28.232Z,98809.84
2017-08-08T00:33:01.653Z,98809.05
2017-08-08T00:35:34.055Z,98834.89
2017-08-08T00:38:06.926Z,98837.17
2017-08-08T00:40:39.273Z,98832.83
2017-08-08T00:43:12.999Z,98811.78
2017-08-08T00:45:45.651Z,98826.47
2017-08-08T00:48:18.525Z,98821.11
2017-08-08T00:50:51.106Z,98826.86
2017-08-08T00:53:24.257Z,98826.28
2017-08-08T00:55:59.771Z,98831.97
2017-08-08T00:58:32.037Z,98802.81
2017-08-08T01:01:05.262Z,98819.14
2017-08-08T01:03:37.823Z,98817.70
2017-08-08T01:06:10.765Z,98803.78
2017-08-08T01:08:44.541Z,98799.28
2017-08-08T01:11:17.250Z,98803.63
2017-08-08T01:13:49.693Z,98799.77
2017-08-08T01:16:22.003Z,98797.24
2017-08-08T01:18:57.122Z,98790.40
2017-08-08T01:21:29.921Z,98785.59
2017-08-08T01:24:02.288Z,98776.30
2017-08-08T01:26:35.028Z,98770.64
2017-08-08T01:29:07.920Z,98777.12
2017-08-08T01:31:41.356Z,98775.14
2017-08-08T01:34:13.518Z,98775.63
2017-08-08T01:36:49.561Z,98773.26
2017-08-08T01:39:21.623Z,98764.05
2017-08-08T01:41:59.387Z,98765.87
2017-08-08T01:44:32.975Z,98774.35
2017-08-08T01:47:06.402Z,98768.94
2017-08-08T01:49:39.032Z,98767.03
2017-08-08T01:52:13.409Z,98770.80
2017-08-08T01:54:47.216Z,98739.22
2017-08-08T01:57:19.331Z,98762.05
2017-08-08T01:59:55.690Z,98758.33
2017-08-08T02:02:33.009Z,98757.23
2017-08-08T02:05:05.721Z,98747.33
2017-08-08T02:07:38.833Z,98734.02
2017-08-08T02:10:13.921Z,98745.66
2017-08-08T02:12:46.053Z,98761.50
2017-08-08T02:15:19.780Z,98739.52
2017-08-08T02:17:52.388Z,98753.02
2017-08-08T02:20:28.564Z,98743.37
2017-08-08T02:23:04.702Z,98699.37
2017-08-08T02:25:38.318Z,98744.66
2017-08-08T02:28:11.536Z,98714.51
2017-08-08T02:30:44.916Z,98713.63
2017-08-08T02:33:18.803Z,98753.95
2017-08-08T02:35:56.536Z,98745.45
2017-08-08T02:38:33.797Z,98748.67
2017-08-08T02:41:06.222Z,98746.78
2017-08-08T02:43:39.752Z,98742.92
2017-08-08T02:46:17.327Z,98741.44
2017-08-08T02:48:50.874Z,98705.51
2017-08-08T02:51:23.520Z,98746.75
2017-08-08T02:53:59.163Z,98742.34
2017-08-08T02:56:31.817Z,98738.38
2017-08-08T02:59:04.727Z,98744.63
2017-08-08T03:01:37.448Z,98745.71
2017-08-08T03:04:11.940Z,98714.13
2017-08-08T03:06:44.996Z,98725.80
2017-08-08T03:09:18.189Z,98732.34
2017-08-08T03:11:52.415Z,98729.38
2017-08-08T03:14:32.837Z,98735.47
2017-08-08T03:17:11.723Z,98737.54
2017-08-08T03:19:48.254Z,98741.06
2017-08-08T03:22:20.810Z,98736.71
2017-08-08T03:24:57.391Z,98733.83
2017-08-08T03:27:33.137Z,98709.19
2017-08-08T03:30:10.778Z,98732.95
2017-08-08T03:32:42.732Z,98728.78
2017-08-08T03:35:14.961Z,98724.92
2017-08-08T03:37:48.065Z,98727.44
2017-08-08T03:40:20.480Z,98710.76
2017-08-08T03:45:32.169Z,98691.19
2017-08-08T03:48:07.184Z,98706.35
2017-08-08T03:50:40.421Z,98691.98
2017-08-08T03:53:14.668Z,98677.52
2017-08-08T03:55:48.972Z,98655.47
2017-08-08T03:58:22.408Z,98683.02
2017-08-08T04:01:00.133Z,98657.44
2017-08-08T04:03:36.577Z,98670.64
2017-08-08T04:06:14.119Z,98654.77
2017-08-08T04:08:46.855Z,98657.13
2017-08-08T04:11:23.593Z,98640.61
2017-08-08T04:14:01.626Z,98655.80
2017-08-08T04:16:35.027Z,98656.79
2017-08-08T04:19:07.867Z,98665.00
2017-08-08T04:21:40.490Z,98662.48
2017-08-08T04:24:13.059Z,98645.41
2017-08-08T04:26:46.265Z,98645.56
2017-08-08T04:29:20.555Z,98632.30
2017-08-08T04:31:59.956Z,98620.81
2017-08-08T04:34:32.896Z,98613.20
2017-08-08T04:37:06.530Z,98616.90
2017-08-08T04:39:38.825Z,98618.63
2017-08-08T04:42:11.184Z,98618.84
2017-08-08T04:44:43.533Z,98622.30
2017-08-08T04:47:15.779Z,98629.08
2017-08-08T04:49:49.192Z,98634.81
2017-08-08T04:52:21.398Z,98640.65
2017-08-08T04:54:56.119Z,98634.91
2017-08-08T04:57:28.443Z,98635.67
2017-08-08T05:00:02.551Z,98605.75
2017-08-08T05:02:36.322Z,98595.48
2017-08-08T05:05:10.159Z,98625.47
2017-08-08T05:07:43.408Z,98623.95
2017-08-08T05:10:15.498Z,98611.84
2017-08-08T05:12:48.451Z,98597.09
2017-08-08T05:15:21.166Z,98601.47
2017-08-08T05:17:56.481Z,98604.38
2017-08-08T05:20:29.610Z,98604.38
2017-08-08T05:23:04.449Z,98577.88
2017-08-08T05:25:37.983Z,98593.08
2017-08-08T05:28:11.148Z,98587.24
2017-08-08T05:30:48.015Z,98581.50
2017-08-08T05:33:24.652Z,98580.72
2017-08-08T05:36:04.226Z,98573.09
2017-08-08T05:38:41.639Z,98582.36
2017-08-08T05:41:19.910Z,98551.13
2017-08-08T05:43:53.171Z,98585.67
2017-08-08T05:46:32.370Z,98583.39
2017-08-08T05:49:10.054Z,98583.39
2017-08-08T05:51:49.224Z,98550.77
2017-08-08T05:54:28.047Z,98585.89
2017-08-08T05:57:06.277Z,98558.27
2017-08-08T05:59:40.217Z,98588.49
2017-08-08T06:02:18.669Z,98576.62
2017-08-08T06:04:59.102Z,98582.91
2017-08-08T06:07:42.679Z,98605.56
2017-08-08T06:10:22.089Z,98591.50
2017-08-08T06:13:03.974Z,98585.84
2017-08-08T06:15:42.053Z,98573.56
2017-08-08T06:18:19.129Z,98563.20
2017-08-08T06:20:59.286Z,98546.04
2017-08-08T06:23:32.776Z,98549.57
2017-08-08T06:26:13.276Z,98516.18
2017-08-08T06:28:52.252Z,98538.25
2017-08-08T06:31:33.575Z,98519.78
2017-08-08T06:34:06.278Z,98538.72
2017-08-08T06:36:45.531Z,98531.95
2017-08-08T06:39:20.538Z,98527.05
2017-08-08T06:42:12.160Z,98521.38
2017-08-08T06:44:50.368Z,98523.66
2017-08-08T06:47:24.461Z,98527.34
2017-08-08T06:50:02.198Z,98530.89
2017-08-08T06:52:38.810Z,98537.87
2017-08-08T06:55:15.347Z,98524.27
2017-08-08T07:00:34.545Z,98520.71
2017-08-08T07:03:09.360Z,98499.03
2017-08-08T07:05:50.273Z,98506.78
2017-08-08T07:08:25.085Z,98497.15
2017-08-08T07:11:04.642Z,98414.38
2017-08-08T07:13:39.885Z,98478.81
2017-08-08T07:16:13.820Z,98487.52
2017-08-08T07:18:50.370Z,98379.45
2017-08-08T07:21:26.098Z,98488.70
2017-08-08T07:24:04.858Z,98494.45
2017-08-08T07:26:41.916Z,98482.30
2017-08-08T07:29:22.244Z,98451.47
2017-08-08T07:32:06.657Z,98452.56
2017-08-08T07:34:48.091Z,98489.52
2017-08-08T07:37:21.481Z,98488.86
2017-08-08T07:40:08.923Z,98481.22
2017-08-08T07:42:42.966Z,98476.55
2017-08-08T07:45:16.904Z,98491.03
2017-08-08T07:47:49.791Z,98449.41
2017-08-08T07:50:26.371Z,98473.11
2017-08-08T07:53:06.445Z,98467.04
2017-08-08T07:55:41.335Z,98451.46
2017-08-08T08:00:55.804Z,98436.66
2017-08-08T08:03:31.776Z,98425.53
2017-08-08T08:06:05.955Z,98463.16
2017-08-08T08:08:44.249Z,98457.20
2017-08-08T08:11:17.510Z,98456.46
2017-08-08T08:13:56.055Z,98421.13
2017-08-08T08:16:29.984Z,98456.73
2017-08-08T08:19:03.546Z,98435.31
2017-08-08T08:21:40.146Z,98454.52
2017-08-08T08:24:15.892Z,98457.80
2017-08-08T08:26:49.453Z,98453.03
2017-08-08T08:29:27.700Z,98427.18
2017-08-08T08:32:04.087Z,98428.36
2017-08-08T08:34:36.819Z,98429.96
2017-08-08T08:37:10.915Z,98429.02
2017-08-08T08:39:44.045Z,98416.19
2017-08-08T08:42:17.216Z,98408.05
2017-08-08T08:44:50.658Z,98403.43
2017-08-08T08:47:23.989Z,98395.50
2017-08-08T08:50:05.404Z,98397.46
2017-08-08T08:52:42.004Z,98375.74
2017-08-08T08:55:18.244Z,98395.70
2017-08-08T08:57:50.959Z,98398.99
2017-08-08T09:00:24.215Z,98388.98
2017-08-08T09:03:02.519Z,98383.74
2017-08-08T09:05:37.350Z,98374.86
2017-08-08T09:08:13.409Z,98374.66
2017-08-08T09:10:47.338Z,98380.40
2017-08-08T09:13:20.582Z,98381.11
2017-08-08T09:18:31.612Z,98380.78
2017-08-08T09:21:04.590Z,98379.01
2017-08-08T09:23:37.351Z,98378.86
2017-08-08T09:26:10.147Z,98357.19
2017-08-08T09:28:43.496Z,98360.09
2017-08-08T09:31:18.010Z,98357.86
2017-08-08T09:33:52.182Z,98348.37
2017-08-08T09:36:27.748Z,98356.03
2017-08-08T09:39:04.963Z,98351.09
2017-08-08T09:41:38.565Z,98313.76
2017-08-08T09:44:11.570Z,98353.50
2017-08-08T09:46:45.320Z,98353.06
2017-08-08T09:49:18.545Z,98353.23
2017-08-08T09:51:51.197Z,98362.57
2017-08-08T09:54:25.750Z,98360.62
2017-08-08T09:57:01.023Z,98360.95
2017-08-08T10:00:07.522Z,98320.09
2017-08-08T10:02:41.892Z,98343.25
2017-08-08T10:05:19.892Z,98352.41
2017-08-08T10:07:57.860Z,98355.03
2017-08-08T10:10:30.896Z,98353.07
2017-08-08T10:13:05.604Z,98343.80
2017-08-08T10:15:38.779Z,98342.78
2017-08-08T10:18:14.848Z,98347.30
2017-08-08T10:20:49.120Z,98346.48
2017-08-08T10:23:22.428Z,98345.20
2017-08-08T10:26:03.174Z,98349.91
2017-08-08T10:28:37.771Z,98360.09
2017-08-08T10:31:13.387Z,98349.05
2017-08-08T10:33:47.181Z,98343.58
2017-08-08T10:36:27.332Z,98326.40
2017-08-08T10:39:12.327Z,98284.05
2017-08-08T10:41:50.205Z,98325.18
2017-08-08T10:44:22.922Z,98332.89
2017-08-08T10:47:00.199Z,98326.39
2017-08-08T10:49:34.403Z,98322.97
2017-08-08T10:52:10.360Z,98313.38
2017-08-08T10:54:49.339Z,98299.89
2017-08-08T10:57:22.247Z,98316.87
2017-08-08T11:00:01.839Z,98315.53
2017-08-08T11:02:35.343Z,98310.64
2017-08-08T11:05:10.722Z,98293.39
2017-08-08T11:07:44.000Z,98304.16
2017-08-08T11:10:17.756Z,98299.25
2017-08-08T11:12:51.348Z,98299.70
2017-08-08T11:15:26.820Z,98288.34
2017-08-08T11:17:59.850Z,98284.22
2017-08-08T11:20:37.705Z,98301.58
2017-08-08T11:23:12.521Z,98297.19
2017-08-08T11:25:46.513Z,98273.23
2017-08-08T11:28:22.409Z,98276.89
2017-08-08T11:31:01.091Z,98288.34
2017-08-08T11:33:36.390Z,98282.18
2017-08-08T11:36:11.139Z,98278.09
2017-08-08T11:38:43.953Z,98273.36
2017-08-08T11:41:17.576Z,98276.27
2017-08-08T11:43:49.993Z,98269.60
2017-08-08T11:46:24.537Z,98270.02
2017-08-08T11:49:03.429Z,98287.04
2017-08-08T11:51:37.119Z,98272.81
2017-08-08T11:54:14.054Z,98267.08
2017-08-08T11:56:47.455Z,98275.72
2017-08-08T11:59:32.482Z,98280.15
2017-08-08T12:02:08.293Z,98279.39
2017-08-08T12:04:41.425Z,98284.14
2017-08-08T12:07:15.716Z,98271.43
2017-08-08T12:09:48.016Z,98264.22
2017-08-08T12:12:20.781Z,98261.29
2017-08-08T12:14:54.299Z,98270.64
2017-08-08T12:17:26.820Z,98275.20
2017-08-08T12:20:04.477Z,98262.38
2017-08-08T12:22:37.595Z,98246.13
2017-08-08T12:25:10.795Z,98249.20
2017-08-08T12:27:43.965Z,98247.30
2017-08-08T12:30:17.422Z,98258.99
2017-08-08T12:32:51.942Z,98263.25
2017-08-08T12:35:25.091Z,98262.08
2017-08-08T12:38:00.303Z,98266.50
2017-08-08T12:40:32.952Z,98261.52
2017-08-08T12:43:06.113Z,98248.06
2017-08-08T12:45:39.863Z,98254.59
2017-08-08T12:48:12.866Z,98257.84
2017-08-08T12:50:49.888Z,98251.48
2017-08-08T12:53:22.652Z,98254.00
2017-08-08T12:55:56.961Z,98239.27
2017-08-08T12:58:49.946Z,98187.20
2017-08-08T13:01:23.899Z,98240.91
2017-08-08T13:03:56.886Z,98219.59
2017-08-08T13:06:31.799Z,98229.47
2017-08-08T13:09:07.924Z,98244.27
2017-08-08T13:11:43.421Z,98247.69
2017-08-08T13:17:44.019Z,98234.66
2017-08-08T13:20:48.386Z,98237.97
2017-08-08T13:23:22.858Z,98271.52
2017-08-08T13:26:33.264Z,98254.84
2017-08-08T13:29:18.890Z,98248.80
2017-08-08T13:31:57.036Z,98256.03
2017-08-08T13:34:29.185Z,98253.96
2017-08-08T13:37:03.893Z,98234.55
2017-08-08T13:39:36.370Z,98271.52
2017-08-08T13:42:08.548Z,98231.82
2017-08-08T13:45:06.464Z,98278.13
2017-08-08T13:47:38.397Z,98272.47
2017-08-08T13:50:14.327Z,98275.14
2017-08-08T13:52:48.542Z,98274.26
2017-08-08T13:55:21.146Z,98271.98
2017-08-08T13:58:39.174Z,98267.34
2017-08-08T14:01:19.948Z,98296.44
2017-08-08T14:04:16.550Z,98295.02
2017-08-08T14:06:48.788Z,98290.49
2017-08-08T14:09:23.097Z,98302.04
2017-08-08T14:11:54.986Z,98281.70
2017-08-08T14:14:29.062Z,98268.49
2017-08-08T14:17:21.242Z,98244.41
2017-08-08T14:19:57.534Z,98276.20
2017-08-08T14:22:30.996Z,98270.84
2017-08-08T14:25:04.411Z,98264.54
2017-08-08T14:27:37.164Z,98283.53
2017-08-08T14:30:10.781Z,98282.94
2017-08-08T14:32:47.607Z,98267.34
2017-08-08T14:35:19.636Z,98280.08
2017-08-08T14:37:51.464Z,98270.71
2017-08-08T14:40:23.454Z,98268.41
2017-08-08T14:42:57.992Z,98263.59
2017-08-08T14:45:30.742Z,98267.19
2017-08-08T14:48:03.252Z,98246.93
2017-08-08T14:50:46.571Z,98256.70
2017-08-08T14:53:18.439Z,98257.31
2017-08-08T14:55:51.681Z,98249.70
2017-08-08T14:58:24.092Z,98252.66
2017-08-08T15:01:05.889Z,98253.95
2017-08-08T15:03:38.130Z,98248.91
2017-08-08T15:06:10.609Z,98260.80
2017-08-08T15:08:42.465Z,98246.72
2017-08-08T15:11:14.911Z,98234.97
2017-08-08T15:13:47.327Z,98263.52
2017-08-08T15:16:26.219Z,98275.14
2017-08-08T15:19:03.201Z,98261.68
2017-08-08T15:21:35.239Z,98275.88
2017-08-08T15:24:08.809Z,98265.11
2017-08-08T15:26:40.866Z,98277.95
2017-08-08T15:29:12.847Z,98274.26
2017-08-08T15:31:45.426Z,98266.41
2017-08-08T15:34:19.776Z,98264.52
2017-08-08T15:36:52.978Z,98267.75
2017-08-08T15:39:30.641Z,98272.74
2017-08-08T15:42:10.667Z,98280.91
2017-08-08T15:44:43.690Z,98280.08
2017-08-08T15:47:22.030Z,98281.25
2017-08-08T15:49:58.343Z,98280.35
2017-08-08T15:52:32.173Z,98280.69
2017-08-08T15:55:04.825Z,98243.75
2017-08-08T15:57:37.896Z,98276.55
2017-08-08T16:00:14.896Z,98292.14
2017-08-08T16:02:47.264Z,98288.77
2017-08-08T16:05:20.502Z,98273.84
2017-08-08T16:07:52.071Z,98278.78
2017-08-08T16:10:24.584Z,98275.14
2017-08-08T16:12:58.822Z,98272.33
2017-08-08T16:16:42.250Z,98281.08
2017-08-08T16:19:18.091Z,98297.20
2017-08-08T16:24:34.536Z,98308.65
2017-08-08T16:27:07.038Z,98317.45
2017-08-08T16:29:39.693Z,98310.87
2017-08-08T16:32:12.074Z,98307.16
2017-08-08T16:34:44.749Z,98318.92
2017-08-08T16:37:19.236Z,98301.45
2017-08-08T16:39:53.177Z,98323.61
2017-08-08T16:42:25.933Z,98333.41
2017-08-08T16:45:03.053Z,98334.14
2017-08-08T16:47:35.261Z,98331.79
2017-08-08T16:50:10.115Z,98331.96
2017-08-08T16:52:46.378Z,98342.23
2017-08-08T16:55:18.832Z,98328.61
2017-08-08T16:57:50.393Z,98344.79
2017-08-08T17:00:24.012Z,98346.11
2017-08-08T17:02:58.837Z,98347.98
2017-08-08T17:05:30.752Z,98338.19
2017-08-08T17:08:03.413Z,98297.41
2017-08-08T17:10:36.248Z,98350.98
2017-08-08T17:13:08.423Z,98346.33
2017-08-08T17:15:50.490Z,98343.81
2017-08-08T17:18:22.316Z,98360.02
2017-08-08T17:20:57.467Z,98363.69
2017-08-08T17:23:30.651Z,98349.41
2017-08-08T17:26:03.392Z,98365.09
2017-08-08T17:28:36.049Z,98355.29
2017-08-08T17:31:08.071Z,98342.75
2017-08-08T17:33:42.381Z,98344.03
2017-08-08T17:36:16.192Z,98316.84
2017-08-08T17:38:48.711Z,98366.68
2017-08-08T17:41:29.547Z,98371.94
2017-08-08T17:44:09.017Z,98351.26
2017-08-08T17:46:42.451Z,98366.67
2017-08-08T17:49:16.839Z,98364.38
2017-08-08T17:51:48.943Z,98367.90
2017-08-08T17:54:21.240Z,98375.54
2017-08-08T17:56:57.567Z,98360.92
2017-08-08T17:59:35.947Z,98359.75
2017-08-08T18:02:10.313Z,98363.66
2017-08-08T18:04:50.743Z,98363.86
2017-08-08T18:07:24.386Z,98359.23
2017-08-08T18:09:59.624Z,98347.92
2017-08-08T18:12:49.572Z,98347.45
2017-08-08T18:15:31.439Z,98351.83
2017-08-08T18:18:03.361Z,98373.31
2017-08-08T18:20:36.403Z,98380.59
2017-08-08T18:23:10.283Z,98385.37
2017-08-08T18:25:46.582Z,98386.09
2017-08-08T18:28:21.934Z,98390.56
2017-08-08T18:30:54.727Z,98398.81
2017-08-08T18:33:26.722Z,98404.91
2017-08-08T18:36:00.889Z,98410.85
2017-08-08T18:38:34.741Z,98414.11
2017-08-08T18:41:06.676Z,98429.03
2017-08-08T18:43:39.446Z,98429.16
2017-08-08T18:46:11.951Z,98432.57
2017-08-08T18:48:44.034Z,98422.16
2017-08-08T18:51:18.276Z,98411.81
2017-08-08T18:53:52.688Z,98437.26
2017-08-08T18:56:28.836Z,98436.47
2017-08-08T18:59:05.708Z,98381.09
2017-08-08T19:01:38.729Z,98455.91
2017-08-08T19:04:16.126Z,98444.38
2017-08-08T19:06:48.078Z,98446.27
2017-08-08T19:09:21.130Z,98434.94
2017-08-08T19:11:55.869Z,98446.63
2017-08-08T19:14:34.167Z,98452.56
2017-08-08T19:17:09.527Z,98471.13
2017-08-08T19:19:44.807Z,98442.70
2017-08-08T19:22:16.645Z,98472.73
2017-08-08T19:24:57.016Z,98468.31
2017-08-08T19:27:29.650Z,98473.52
2017-08-08T19:30:05.513Z,98461.79
2017-08-08T19:32:40.511Z,98486.91
2017-08-08T19:35:16.901Z,98499.95
2017-08-08T19:37:50.950Z,98500.05
2017-08-08T19:40:25.523Z,98501.94
2017-08-08T19:43:01.170Z,98506.53
2017-08-08T19:45:35.968Z,98499.20
2017-08-08T19:48:08.101Z,98507.25
2017-08-08T19:50:42.017Z,98512.42
2017-08-08T19:53:17.080Z,98504.14
2017-08-08T19:55:56.029Z,98491.66
2017-08-08T19:58:51.393Z,98499.31
2017-08-08T20:01:24.650Z,98496.41
2017-08-08T20:03:59.467Z,98486.45
2017-08-08T20:06:34.130Z,98503.45
2017-08-08T20:09:09.512Z,98489.75
2017-08-08T20:11:41.799Z,98506.68
2017-08-08T20:14:15.533Z,98502.98
2017-08-08T20:16:48.351Z,98482.42
2017-08-08T20:19:20.549Z,98508.77
2017-08-08T20:21:58.507Z,98511.66
2017-08-08T20:24:31.538Z,98463.89
2017-08-08T20:27:03.446Z,98507.95
2017-08-08T20:29:36.859Z,98522.27
2017-08-08T20:32:10.083Z,98518.79
2017-08-08T20:34:41.897Z,98517.22
2017-08-08T20:37:14.055Z,98516.63
2017-08-08T20:39:49.109Z,98520.98
2017-08-08T20:42:22.753Z,98506.36
2017-08-08T20:45:01.480Z,98528.64
2017-08-08T20:47:33.674Z,98537.34
2017-08-08T20:50:07.748Z,98533.13
2017-08-08T20:52:40.732Z,98519.20
2017-08-08T20:55:12.656Z,98532.41
2017-08-08T20:57:48.214Z,98536.38
2017-08-08T21:00:23.017Z,98535.59
2017-08-08T21:02:57.728Z,98536.34
2017-08-08T21:05:31.215Z,98541.70
2017-08-08T21:08:04.564Z,98521.19
2017-08-08T21:10:36.251Z,98543.37
2017-08-08T21:13:08.494Z,98549.84
2017-08-08T21:15:40.193Z,98535.00
2017-08-08T21:18:12.345Z,98539.97
2017-08-08T21:20:44.245Z,98552.60
2017-08-08T21:23:15.899Z,98544.83
2017-08-08T21:25:47.299Z,98532.84
2017-08-08T21:28:19.428Z,98545.53
2017-08-08T21:30:51.983Z,98532.59
2017-08-08T21:33:24.107Z,98527.55
2017-08-08T21:35:59.008Z,98534.77
2017-08-08T21:38:32.586Z,98526.29
2017-08-08T21:41:04.751Z,98552.31
2017-08-08T21:43:38.353Z,98530.77
2017-08-08T21:46:10.626Z,98526.52
2017-08-08T21:48:43.057Z,98541.62
2017-08-08T21:51:15.485Z,98539.50
2017-08-08T21:53:48.191Z,98549.12
2017-08-08T21:56:23.843Z,98546.36
2017-08-08T21:59:03.815Z,98539.10
2017-08-08T22:01:38.618Z,98527.03
2017-08-08T22:04:11.780Z,98537.53
2017-08-08T22:06:43.659Z,98527.26
2017-08-08T22:09:19.928Z,98543.73
2017-08-08T22:11:53.036Z,98553.05
2017-08-08T22:14:26.636Z,98551.70
2017-08-08T22:17:02.548Z,98561.81
2017-08-08T22:19:34.817Z,98569.63
2017-08-08T22:22:08.256Z,98555.54
2017-08-08T22:24:42.479Z,98594.88
2017-08-08T22:27:17.807Z,98601.93
2017-08-08T22:30:00.455Z,98605.33
2017-08-08T22:35:30.024Z,98606.05
2017-08-08T22:38:03.821Z,98588.23
2017-08-08T22:40:36.334Z,98622.14
2017-08-08T22:43:12.407Z,98619.33
2017-08-08T22:45:45.106Z,98636.18
2017-08-08T22:48:18.781Z,98625.84
2017-08-08T22:50:50.729Z,98622.66
2017-08-08T22:53:22.139Z,98633.10
2017-08-08T22:55:56.715Z,98626.52
2017-08-08T22:58:29.228Z,98639.73
2017-08-08T23:01:08.311Z,98572.31
2017-08-08T23:03:40.664Z,98638.07
2017-08-08T23:06:12.226Z,98628.69
2017-08-08T23:08:45.293Z,98646.52
2017-08-08T23:11:17.066Z,98633.66
2017-08-08T23:13:49.435Z,98644.55
2017-08-08T23:16:20.996Z,98631.36
2017-08-08T23:18:53.445Z,98636.66
2017-08-08T23:21:25.983Z,98643.52
2017-08-08T23:24:06.719Z,98623.98
2017-08-08T23:26:38.992Z,98591.23
2017-08-08T23:29:10.501Z,98614.72
2017-08-08T23:31:42.938Z,98618.55
2017-08-08T23:34:16.893Z,98621.00
2017-08-08T23:36:49.109Z,98619.26
2017-08-08T23:39:22.182Z,98622.50
2017-08-08T23:41:57.040Z,98623.28
2017-08-08T23:44:29.337Z,98629.98
2017-08-08T23:47:02.486Z,98613.79
2017-08-08T23:49:33.821Z,98617.69
2017-08-08T23:52:06.009Z,98625.34
2017-08-08T23:54:38.277Z,98633.38
2017-08-08T23:57:11.261Z,98627.16
2017-08-08T23:59:45.077Z,98620.62
